Portada
METAR-TAF:

METAR-TAF

Aeroports :

Poteau, Oklahoma, Estats Units d'Amèrica

latitud: 35-01-18N, longitud: 094-37-17W, altitud: 138 m

Observació

L'informe es va fer fa 21 minuts, a les 11:15 UTC
Vent 10 kt del Nord
Temperatura -6°C
Humitat 62%
Pressió 1038 hPa
Visibilitat: 16.1 km
Cel clar

METAR: KRKR 121115Z AUTO 35010KT 10SM CLR M06/M12 A3064 RMK AO2

Hora: 05:36 (11:36 UTC)


TAF: manca

Observacions i pronòstics meteorològics de més de 4000 aeroports (METAR i TAF).

Les estacions disponibles són els punts grocs i vermells al mapa.

Posi el ratolí al punt desitjat per veure el nom de l'estació.

Feu clic per veure les observacions i els pronòstics meteorològics.

Per canviar el mapa: feu clic els botons verds amb una creu de color negre per apropar; al botó verd amb un guió per allunyar la imatge; o en les fletxes verdes per a mapes adjacents.


METAR-TAF: